Terminal Aerodrome Forecast
Issued by NWS Sterling, VA

Current Version | Previous Version | Text Only | Print | Product List | Glossary Off
Versions: 1 2 3 4 5 6 7 8 9 10 11 12 13 14 15 16 17 18 19 20 21 22 23 24 25 26

756
FTUS41 KLWX 010854 AAA
TAFDCA
TAF AMD
KDCA 010854Z 0109/0206 14006KT P6SM -RA OVC035
     FM011000 15006KT P6SM -RA OVC020
     FM011200 15006KT 3SM -RA OVC008
     FM011700 17007KT P6SM OVC008
     FM012100 16006KT P6SM -SHRA OVC015
     FM020300 11004KT 5SM -SHRA BR BKN008=

USA.gov is the U.S. government's official web portal to all federal, state and local government web resources and services.